sensor_id;sensor_type;location;lat;lon;timestamp;temperature;humidity
12761;DHT22;6444;49.742;6.114;2023-05-07T00:00:58;15.40;99.90
12761;DHT22;6444;49.742;6.114;2023-05-07T00:03:25;15.30;99.90
12761;DHT22;6444;49.742;6.114;2023-05-07T00:05:51;15.00;99.90
12761;DHT22;6444;49.742;6.114;2023-05-07T00:08:18;15.40;99.90
12761;DHT22;6444;49.742;6.114;2023-05-07T00:10:44;15.80;99.90
12761;DHT22;6444;49.742;6.114;2023-05-07T00:13:12;15.80;99.90
12761;DHT22;6444;49.742;6.114;2023-05-07T00:15:38;15.80;99.90
12761;DHT22;6444;49.742;6.114;2023-05-07T00:18:05;14.70;99.90
12761;DHT22;6444;49.742;6.114;2023-05-07T00:20:32;14.50;99.90
12761;DHT22;6444;49.742;6.114;2023-05-07T00:22:58;14.60;99.90
12761;DHT22;6444;49.742;6.114;2023-05-07T00:25:26;14.90;99.90
12761;DHT22;6444;49.742;6.114;2023-05-07T00:27:52;14.80;99.90
12761;DHT22;6444;49.742;6.114;2023-05-07T00:30:19;15.20;99.90
12761;DHT22;6444;49.742;6.114;2023-05-07T00:32:45;15.40;99.90
12761;DHT22;6444;49.742;6.114;2023-05-07T00:35:12;15.40;99.90
12761;DHT22;6444;49.742;6.114;2023-05-07T00:37:39;15.10;99.90
12761;DHT22;6444;49.742;6.114;2023-05-07T00:40:07;15.40;99.90
12761;DHT22;6444;49.742;6.114;2023-05-07T00:42:35;14.80;99.90
12761;DHT22;6444;49.742;6.114;2023-05-07T00:45:02;14.70;99.90
12761;DHT22;6444;49.742;6.114;2023-05-07T00:47:29;15.00;99.90
12761;DHT22;6444;49.742;6.114;2023-05-07T00:49:55;15.20;99.90
12761;DHT22;6444;49.742;6.114;2023-05-07T00:52:23;14.70;99.90
12761;DHT22;6444;49.742;6.114;2023-05-07T00:54:49;14.60;99.90
12761;DHT22;6444;49.742;6.114;2023-05-07T00:57:16;14.60;99.90
12761;DHT22;6444;49.742;6.114;2023-05-07T00:59:43;14.70;99.90
12761;DHT22;6444;49.742;6.114;2023-05-07T01:02:09;14.40;99.90
12761;DHT22;6444;49.742;6.114;2023-05-07T01:04:36;14.90;99.90
12761;DHT22;6444;49.742;6.114;2023-05-07T01:07:03;15.50;99.90
12761;DHT22;6444;49.742;6.114;2023-05-07T01:09:30;15.40;99.90
12761;DHT22;6444;49.742;6.114;2023-05-07T01:11:57;15.50;99.90
12761;DHT22;6444;49.742;6.114;2023-05-07T01:14:23;15.60;99.90
12761;DHT22;6444;49.742;6.114;2023-05-07T01:16:50;15.60;99.90
12761;DHT22;6444;49.742;6.114;2023-05-07T01:19:19;15.70;99.90
12761;DHT22;6444;49.742;6.114;2023-05-07T01:21:47;15.60;99.90
12761;DHT22;6444;49.742;6.114;2023-05-07T01:24:12;15.50;99.90
12761;DHT22;6444;49.742;6.114;2023-05-07T01:26:39;15.50;99.90
12761;DHT22;6444;49.742;6.114;2023-05-07T01:29:06;15.60;99.90
12761;DHT22;6444;49.742;6.114;2023-05-07T01:31:33;15.30;99.90
12761;DHT22;6444;49.742;6.114;2023-05-07T01:34:00;15.20;99.90
12761;DHT22;6444;49.742;6.114;2023-05-07T01:36:26;15.30;99.90
12761;DHT22;6444;49.742;6.114;2023-05-07T01:38:53;14.70;99.90
12761;DHT22;6444;49.742;6.114;2023-05-07T01:41:20;14.40;99.90
12761;DHT22;6444;49.742;6.114;2023-05-07T01:43:48;14.80;99.90
12761;DHT22;6444;49.742;6.114;2023-05-07T01:46:13;15.10;99.90
12761;DHT22;6444;49.742;6.114;2023-05-07T01:48:39;14.90;99.90
12761;DHT22;6444;49.742;6.114;2023-05-07T01:51:06;14.70;99.90
12761;DHT22;6444;49.742;6.114;2023-05-07T01:53:39;14.70;99.90
12761;DHT22;6444;49.742;6.114;2023-05-07T01:56:05;14.40;99.90
12761;DHT22;6444;49.742;6.114;2023-05-07T01:58:32;14.70;99.90
12761;DHT22;6444;49.742;6.114;2023-05-07T02:00:58;14.90;99.90
12761;DHT22;6444;49.742;6.114;2023-05-07T02:03:25;14.90;99.90
12761;DHT22;6444;49.742;6.114;2023-05-07T02:05:51;14.90;99.90
12761;DHT22;6444;49.742;6.114;2023-05-07T02:08:18;14.90;99.90
12761;DHT22;6444;49.742;6.114;2023-05-07T02:10:45;14.50;99.90
12761;DHT22;6444;49.742;6.114;2023-05-07T02:13:11;14.50;99.90
12761;DHT22;6444;49.742;6.114;2023-05-07T02:15:38;14.30;99.90
12761;DHT22;6444;49.742;6.114;2023-05-07T02:18:05;13.90;99.90
12761;DHT22;6444;49.742;6.114;2023-05-07T02:20:31;14.00;99.90
12761;DHT22;6444;49.742;6.114;2023-05-07T02:22:58;14.40;99.90
12761;DHT22;6444;49.742;6.114;2023-05-07T02:25:24;14.80;99.90
12761;DHT22;6444;49.742;6.114;2023-05-07T02:27:51;14.80;99.90
12761;DHT22;6444;49.742;6.114;2023-05-07T02:30:18;14.80;99.90
12761;DHT22;6444;49.742;6.114;2023-05-07T02:32:44;14.90;99.90
12761;DHT22;6444;49.742;6.114;2023-05-07T02:35:11;14.80;99.90
12761;DHT22;6444;49.742;6.114;2023-05-07T02:37:38;14.80;99.90
12761;DHT22;6444;49.742;6.114;2023-05-07T02:40:05;14.70;99.90
12761;DHT22;6444;49.742;6.114;2023-05-07T02:42:32;14.60;99.90
12761;DHT22;6444;49.742;6.114;2023-05-07T02:44:59;14.50;99.90
12761;DHT22;6444;49.742;6.114;2023-05-07T02:47:25;14.40;99.90
12761;DHT22;6444;49.742;6.114;2023-05-07T02:49:55;14.40;99.90
12761;DHT22;6444;49.742;6.114;2023-05-07T02:52:21;14.40;99.90
12761;DHT22;6444;49.742;6.114;2023-05-07T02:54:48;14.50;99.90
12761;DHT22;6444;49.742;6.114;2023-05-07T02:57:15;14.00;99.90
12761;DHT22;6444;49.742;6.114;2023-05-07T02:59:42;13.90;99.90
12761;DHT22;6444;49.742;6.114;2023-05-07T03:02:09;14.20;99.90
12761;DHT22;6444;49.742;6.114;2023-05-07T03:04:35;14.50;99.90
12761;DHT22;6444;49.742;6.114;2023-05-07T03:07:02;14.60;99.90
12761;DHT22;6444;49.742;6.114;2023-05-07T03:09:29;14.60;99.90
12761;DHT22;6444;49.742;6.114;2023-05-07T03:11:56;14.70;99.90
12761;DHT22;6444;49.742;6.114;2023-05-07T03:14:22;14.70;99.90
12761;DHT22;6444;49.742;6.114;2023-05-07T03:16:49;13.60;99.90
12761;DHT22;6444;49.742;6.114;2023-05-07T03:19:15;12.60;99.90
12761;DHT22;6444;49.742;6.114;2023-05-07T03:21:43;12.20;99.90
12761;DHT22;6444;49.742;6.114;2023-05-07T03:24:09;12.10;99.90
12761;DHT22;6444;49.742;6.114;2023-05-07T03:26:36;12.30;99.90
12761;DHT22;6444;49.742;6.114;2023-05-07T03:29:02;13.00;99.90
12761;DHT22;6444;49.742;6.114;2023-05-07T03:31:29;13.60;99.90
12761;DHT22;6444;49.742;6.114;2023-05-07T03:33:56;13.50;99.90
12761;DHT22;6444;49.742;6.114;2023-05-07T03:36:23;14.60;99.90
12761;DHT22;6444;49.742;6.114;2023-05-07T03:38:50;14.60;99.90
12761;DHT22;6444;49.742;6.114;2023-05-07T03:41:16;15.00;99.90
12761;DHT22;6444;49.742;6.114;2023-05-07T03:43:43;15.00;99.90
12761;DHT22;6444;49.742;6.114;2023-05-07T03:46:10;15.10;99.90
12761;DHT22;6444;49.742;6.114;2023-05-07T03:48:36;15.10;99.90
12761;DHT22;6444;49.742;6.114;2023-05-07T03:51:03;15.20;99.90
12761;DHT22;6444;49.742;6.114;2023-05-07T03:53:30;15.10;99.90
12761;DHT22;6444;49.742;6.114;2023-05-07T03:55:57;14.10;99.90
12761;DHT22;6444;49.742;6.114;2023-05-07T03:58:24;14.10;99.90
12761;DHT22;6444;49.742;6.114;2023-05-07T04:00:50;14.00;99.90
12761;DHT22;6444;49.742;6.114;2023-05-07T04:03:17;14.30;99.90
12761;DHT22;6444;49.742;6.114;2023-05-07T04:05:43;14.70;99.90
12761;DHT22;6444;49.742;6.114;2023-05-07T04:08:10;14.90;99.90
12761;DHT22;6444;49.742;6.114;2023-05-07T04:10:37;14.60;99.90
12761;DHT22;6444;49.742;6.114;2023-05-07T04:13:04;13.20;99.90
12761;DHT22;6444;49.742;6.114;2023-05-07T04:15:31;13.20;99.90
12761;DHT22;6444;49.742;6.114;2023-05-07T04:17:57;13.60;99.90
12761;DHT22;6444;49.742;6.114;2023-05-07T04:20:24;14.20;99.90
12761;DHT22;6444;49.742;6.114;2023-05-07T04:22:51;14.30;99.90
12761;DHT22;6444;49.742;6.114;2023-05-07T04:25:18;14.80;99.90
12761;DHT22;6444;49.742;6.114;2023-05-07T04:27:45;14.80;99.90
12761;DHT22;6444;49.742;6.114;2023-05-07T04:30:12;15.00;99.90
12761;DHT22;6444;49.742;6.114;2023-05-07T04:32:38;14.60;99.90
12761;DHT22;6444;49.742;6.114;2023-05-07T04:35:06;14.70;99.90
12761;DHT22;6444;49.742;6.114;2023-05-07T04:37:32;14.60;99.90
12761;DHT22;6444;49.742;6.114;2023-05-07T04:39:59;14.80;99.90
12761;DHT22;6444;49.742;6.114;2023-05-07T04:42:26;14.60;99.90
12761;DHT22;6444;49.742;6.114;2023-05-07T04:44:53;14.90;99.90
12761;DHT22;6444;49.742;6.114;2023-05-07T04:47:19;14.90;99.90
12761;DHT22;6444;49.742;6.114;2023-05-07T04:49:46;14.80;99.90
12761;DHT22;6444;49.742;6.114;2023-05-07T04:52:12;13.80;99.90
12761;DHT22;6444;49.742;6.114;2023-05-07T04:54:39;13.70;99.90
12761;DHT22;6444;49.742;6.114;2023-05-07T04:57:06;14.80;99.90
12761;DHT22;6444;49.742;6.114;2023-05-07T04:59:33;14.80;99.90
12761;DHT22;6444;49.742;6.114;2023-05-07T05:01:59;14.70;99.90
12761;DHT22;6444;49.742;6.114;2023-05-07T05:04:26;15.30;99.90
12761;DHT22;6444;49.742;6.114;2023-05-07T05:06:53;15.80;99.90
12761;DHT22;6444;49.742;6.114;2023-05-07T05:09:19;15.90;99.90
12761;DHT22;6444;49.742;6.114;2023-05-07T05:11:46;15.80;99.90
12761;DHT22;6444;49.742;6.114;2023-05-07T05:14:13;16.40;99.90
12761;DHT22;6444;49.742;6.114;2023-05-07T05:16:39;17.10;99.90
12761;DHT22;6444;49.742;6.114;2023-05-07T05:19:07;17.80;99.90
12761;DHT22;6444;49.742;6.114;2023-05-07T05:21:33;17.80;99.90
12761;DHT22;6444;49.742;6.114;2023-05-07T05:24:00;18.00;99.90
12761;DHT22;6444;49.742;6.114;2023-05-07T05:26:27;18.50;99.90
12761;DHT22;6444;49.742;6.114;2023-05-07T05:28:53;18.70;99.90
12761;DHT22;6444;49.742;6.114;2023-05-07T05:31:21;19.30;99.90
12761;DHT22;6444;49.742;6.114;2023-05-07T05:33:47;19.20;99.90
12761;DHT22;6444;49.742;6.114;2023-05-07T05:36:14;19.70;99.90
12761;DHT22;6444;49.742;6.114;2023-05-07T05:38:40;20.20;99.90
12761;DHT22;6444;49.742;6.114;2023-05-07T05:41:08;20.60;99.90
12761;DHT22;6444;49.742;6.114;2023-05-07T05:43:34;20.50;99.90
12761;DHT22;6444;49.742;6.114;2023-05-07T05:46:01;20.40;99.90
12761;DHT22;6444;49.742;6.114;2023-05-07T05:48:28;18.80;99.90
12761;DHT22;6444;49.742;6.114;2023-05-07T05:50:54;17.70;99.90
12761;DHT22;6444;49.742;6.114;2023-05-07T05:53:22;17.80;99.90
12761;DHT22;6444;49.742;6.114;2023-05-07T05:55:49;17.80;99.90
12761;DHT22;6444;49.742;6.114;2023-05-07T05:58:15;17.70;99.90
12761;DHT22;6444;49.742;6.114;2023-05-07T06:00:42;17.80;99.90
12761;DHT22;6444;49.742;6.114;2023-05-07T06:03:08;18.80;99.90
12761;DHT22;6444;49.742;6.114;2023-05-07T06:05:36;20.20;99.90
12761;DHT22;6444;49.742;6.114;2023-05-07T06:08:02;20.20;99.90
12761;DHT22;6444;49.742;6.114;2023-05-07T06:10:29;20.80;99.90
12761;DHT22;6444;49.742;6.114;2023-05-07T06:12:56;20.80;99.90
12761;DHT22;6444;49.742;6.114;2023-05-07T06:15:22;20.90;99.90
12761;DHT22;6444;49.742;6.114;2023-05-07T06:17:49;21.10;99.90
12761;DHT22;6444;49.742;6.114;2023-05-07T06:20:16;21.20;99.90
12761;DHT22;6444;49.742;6.114;2023-05-07T06:22:42;21.40;99.90
12761;DHT22;6444;49.742;6.114;2023-05-07T06:25:09;21.30;99.90
12761;DHT22;6444;49.742;6.114;2023-05-07T06:27:35;20.80;99.90
12761;DHT22;6444;49.742;6.114;2023-05-07T06:30:02;20.70;99.90
12761;DHT22;6444;49.742;6.114;2023-05-07T06:32:29;21.00;99.90
12761;DHT22;6444;49.742;6.114;2023-05-07T06:34:55;21.50;99.90
12761;DHT22;6444;49.742;6.114;2023-05-07T06:37:22;22.00;99.90
12761;DHT22;6444;49.742;6.114;2023-05-07T06:39:49;22.00;99.90
12761;DHT22;6444;49.742;6.114;2023-05-07T06:42:16;22.30;99.90
12761;DHT22;6444;49.742;6.114;2023-05-07T06:44:44;22.10;99.90
12761;DHT22;6444;49.742;6.114;2023-05-07T06:47:10;22.00;99.90
12761;DHT22;6444;49.742;6.114;2023-05-07T06:49:37;21.60;99.90
12761;DHT22;6444;49.742;6.114;2023-05-07T06:52:04;20.20;99.90
12761;DHT22;6444;49.742;6.114;2023-05-07T06:54:30;20.00;99.90
12761;DHT22;6444;49.742;6.114;2023-05-07T06:56:57;20.50;99.90
12761;DHT22;6444;49.742;6.114;2023-05-07T06:59:23;20.90;99.90
12761;DHT22;6444;49.742;6.114;2023-05-07T07:01:50;21.30;99.90
12761;DHT22;6444;49.742;6.114;2023-05-07T07:04:17;21.40;99.90
12761;DHT22;6444;49.742;6.114;2023-05-07T07:06:43;21.50;99.90
12761;DHT22;6444;49.742;6.114;2023-05-07T07:09:10;21.60;99.90
12761;DHT22;6444;49.742;6.114;2023-05-07T07:11:37;21.80;99.90
12761;DHT22;6444;49.742;6.114;2023-05-07T07:14:04;21.20;99.90
12761;DHT22;6444;49.742;6.114;2023-05-07T07:16:31;21.10;99.90
12761;DHT22;6444;49.742;6.114;2023-05-07T07:18:57;21.30;99.90
12761;DHT22;6444;49.742;6.114;2023-05-07T07:21:24;21.40;99.90
12761;DHT22;6444;49.742;6.114;2023-05-07T07:23:51;20.50;99.90
12761;DHT22;6444;49.742;6.114;2023-05-07T07:26:18;20.40;99.90
12761;DHT22;6444;49.742;6.114;2023-05-07T07:28:45;20.90;99.90
12761;DHT22;6444;49.742;6.114;2023-05-07T07:31:11;21.20;99.90
12761;DHT22;6444;49.742;6.114;2023-05-07T07:33:38;21.60;99.90
12761;DHT22;6444;49.742;6.114;2023-05-07T07:36:05;22.20;99.90
12761;DHT22;6444;49.742;6.114;2023-05-07T07:38:32;23.20;99.90
12761;DHT22;6444;49.742;6.114;2023-05-07T07:40:59;23.10;99.90
12761;DHT22;6444;49.742;6.114;2023-05-07T07:43:25;23.30;99.90
12761;DHT22;6444;49.742;6.114;2023-05-07T07:45:52;22.90;99.90
12761;DHT22;6444;49.742;6.114;2023-05-07T07:48:18;23.70;99.90
12761;DHT22;6444;49.742;6.114;2023-05-07T07:50:48;25.40;99.90
12761;DHT22;6444;49.742;6.114;2023-05-07T07:53:12;25.30;99.90
12761;DHT22;6444;49.742;6.114;2023-05-07T07:55:39;26.50;99.90
12761;DHT22;6444;49.742;6.114;2023-05-07T07:58:06;27.80;99.90
12761;DHT22;6444;49.742;6.114;2023-05-07T08:00:33;29.30;99.90
12761;DHT22;6444;49.742;6.114;2023-05-07T08:03:00;29.20;99.90
12761;DHT22;6444;49.742;6.114;2023-05-07T08:05:26;30.10;99.90
12761;DHT22;6444;49.742;6.114;2023-05-07T08:07:53;30.60;99.90
12761;DHT22;6444;49.742;6.114;2023-05-07T08:10:19;30.50;99.90
12761;DHT22;6444;49.742;6.114;2023-05-07T08:12:49;30.50;99.90
12761;DHT22;6444;49.742;6.114;2023-05-07T08:15:15;30.30;99.90
12761;DHT22;6444;49.742;6.114;2023-05-07T08:17:42;30.20;99.90
12761;DHT22;6444;49.742;6.114;2023-05-07T08:20:09;30.20;99.90
12761;DHT22;6444;49.742;6.114;2023-05-07T08:22:36;28.70;99.90
12761;DHT22;6444;49.742;6.114;2023-05-07T08:25:03;28.60;99.90
12761;DHT22;6444;49.742;6.114;2023-05-07T08:27:30;28.30;99.90
12761;DHT22;6444;49.742;6.114;2023-05-07T08:29:57;28.30;99.90
12761;DHT22;6444;49.742;6.114;2023-05-07T08:32:23;28.10;99.90
12761;DHT22;6444;49.742;6.114;2023-05-07T08:34:50;28.20;99.90
12761;DHT22;6444;49.742;6.114;2023-05-07T08:37:17;28.20;99.90
12761;DHT22;6444;49.742;6.114;2023-05-07T08:39:44;28.10;99.90
12761;DHT22;6444;49.742;6.114;2023-05-07T08:42:11;27.90;99.90
12761;DHT22;6444;49.742;6.114;2023-05-07T08:44:37;28.10;99.90
12761;DHT22;6444;49.742;6.114;2023-05-07T08:47:05;28.50;99.90
12761;DHT22;6444;49.742;6.114;2023-05-07T08:49:30;28.90;99.90
12761;DHT22;6444;49.742;6.114;2023-05-07T08:51:57;29.30;99.90
12761;DHT22;6444;49.742;6.114;2023-05-07T08:54:24;29.60;99.80
12761;DHT22;6444;49.742;6.114;2023-05-07T08:56:51;30.20;99.00
12761;DHT22;6444;49.742;6.114;2023-05-07T08:59:18;30.10;99.00
12761;DHT22;6444;49.742;6.114;2023-05-07T09:01:44;30.60;97.50
12761;DHT22;6444;49.742;6.114;2023-05-07T09:04:11;29.30;97.30
12761;DHT22;6444;49.742;6.114;2023-05-07T09:06:38;27.50;99.60
12761;DHT22;6444;49.742;6.114;2023-05-07T09:09:04;28.40;99.90
12761;DHT22;6444;49.742;6.114;2023-05-07T09:11:32;30.80;98.70
12761;DHT22;6444;49.742;6.114;2023-05-07T09:13:58;30.80;98.70
12761;DHT22;6444;49.742;6.114;2023-05-07T09:16:25;32.40;97.70
12761;DHT22;6444;49.742;6.114;2023-05-07T09:18:52;33.90;96.10
12761;DHT22;6444;49.742;6.114;2023-05-07T09:21:19;35.20;95.20
12761;DHT22;6444;49.742;6.114;2023-05-07T09:23:45;36.00;93.20
12761;DHT22;6444;49.742;6.114;2023-05-07T09:26:12;36.50;90.00
12761;DHT22;6444;49.742;6.114;2023-05-07T09:28:39;36.50;90.00
12761;DHT22;6444;49.742;6.114;2023-05-07T09:31:05;36.70;90.40
12761;DHT22;6444;49.742;6.114;2023-05-07T09:33:32;37.00;88.70
12761;DHT22;6444;49.742;6.114;2023-05-07T09:36:01;37.00;86.40
12761;DHT22;6444;49.742;6.114;2023-05-07T09:38:25;37.20;84.80
12761;DHT22;6444;49.742;6.114;2023-05-07T09:41:09;36.90;83.90
12761;DHT22;6444;49.742;6.114;2023-05-07T09:43:35;36.80;84.60
12761;DHT22;6444;49.742;6.114;2023-05-07T09:46:14;36.20;84.60
12761;DHT22;6444;49.742;6.114;2023-05-07T09:48:41;36.80;79.90
12761;DHT22;6444;49.742;6.114;2023-05-07T09:51:18;35.20;82.60
12761;DHT22;6444;49.742;6.114;2023-05-07T09:53:33;33.00;84.10
12761;DHT22;6444;49.742;6.114;2023-05-07T09:56:00;30.50;90.70
12761;DHT22;6444;49.742;6.114;2023-05-07T09:58:27;30.40;90.70
12761;DHT22;6444;49.742;6.114;2023-05-07T10:00:54;30.20;90.80
12761;DHT22;6444;49.742;6.114;2023-05-07T10:03:20;29.20;91.60
12761;DHT22;6444;49.742;6.114;2023-05-07T10:05:47;28.70;91.50
12761;DHT22;6444;49.742;6.114;2023-05-07T10:08:14;29.00;90.20
12761;DHT22;6444;49.742;6.114;2023-05-07T10:10:41;28.90;90.10
12761;DHT22;6444;49.742;6.114;2023-05-07T10:13:08;29.30;90.60
12761;DHT22;6444;49.742;6.114;2023-05-07T10:15:34;29.80;90.20
12761;DHT22;6444;49.742;6.114;2023-05-07T10:18:01;31.30;90.90
12761;DHT22;6444;49.742;6.114;2023-05-07T10:20:28;32.90;87.40
12761;DHT22;6444;49.742;6.114;2023-05-07T10:22:55;32.80;87.20
12761;DHT22;6444;49.742;6.114;2023-05-07T10:25:25;32.90;87.20
12761;DHT22;6444;49.742;6.114;2023-05-07T10:27:49;33.20;86.80
12761;DHT22;6444;49.742;6.114;2023-05-07T10:30:31;34.20;83.60
12761;DHT22;6444;49.742;6.114;2023-05-07T10:32:53;34.80;81.90
12761;DHT22;6444;49.742;6.114;2023-05-07T10:35:21;34.60;78.60
12761;DHT22;6444;49.742;6.114;2023-05-07T10:37:46;33.40;81.60
12761;DHT22;6444;49.742;6.114;2023-05-07T10:40:13;33.90;80.50
12761;DHT22;6444;49.742;6.114;2023-05-07T10:42:52;33.20;76.60
12761;DHT22;6444;49.742;6.114;2023-05-07T10:45:13;32.90;82.30
12761;DHT22;6444;49.742;6.114;2023-05-07T10:48:05;33.20;81.20
12761;DHT22;6444;49.742;6.114;2023-05-07T10:52:32;32.10;81.00
12761;DHT22;6444;49.742;6.114;2023-05-07T10:57:44;32.70;82.60
12761;DHT22;6444;49.742;6.114;2023-05-07T11:05:31;33.80;79.40
12761;DHT22;6444;49.742;6.114;2023-05-07T11:08:01;33.60;78.80
12761;DHT22;6444;49.742;6.114;2023-05-07T11:10:46;32.60;80.30
12761;DHT22;6444;49.742;6.114;2023-05-07T11:12:51;32.00;80.80
12761;DHT22;6444;49.742;6.114;2023-05-07T11:15:36;31.60;81.10
12761;DHT22;6444;49.742;6.114;2023-05-07T11:18:02;31.20;82.80
12761;DHT22;6444;49.742;6.114;2023-05-07T11:20:50;30.80;83.20
12761;DHT22;6444;49.742;6.114;2023-05-07T11:26:04;30.40;84.10
12761;DHT22;6444;49.742;6.114;2023-05-07T11:28:30;30.00;83.60
12761;DHT22;6444;49.742;6.114;2023-05-07T11:30:57;28.10;91.50
12761;DHT22;6444;49.742;6.114;2023-05-07T11:36:04;27.80;96.30
12761;DHT22;6444;49.742;6.114;2023-05-07T11:38:34;26.20;99.90
12761;DHT22;6444;49.742;6.114;2023-05-07T11:40:59;25.90;99.90
12761;DHT22;6444;49.742;6.114;2023-05-07T11:43:24;25.80;99.90
12761;DHT22;6444;49.742;6.114;2023-05-07T11:45:51;25.80;99.90
12761;DHT22;6444;49.742;6.114;2023-05-07T11:48:18;25.80;99.90
12761;DHT22;6444;49.742;6.114;2023-05-07T11:51:00;25.30;99.90
12761;DHT22;6444;49.742;6.114;2023-05-07T11:53:26;25.20;99.90
12761;DHT22;6444;49.742;6.114;2023-05-07T11:55:52;25.50;99.90
12761;DHT22;6444;49.742;6.114;2023-05-07T11:58:22;25.90;99.90
12761;DHT22;6444;49.742;6.114;2023-05-07T12:00:51;26.30;99.90
12761;DHT22;6444;49.742;6.114;2023-05-07T12:03:17;26.50;99.90
12761;DHT22;6444;49.742;6.114;2023-05-07T12:05:47;26.70;99.90
12761;DHT22;6444;49.742;6.114;2023-05-07T12:08:17;26.70;99.90
12761;DHT22;6444;49.742;6.114;2023-05-07T12:10:41;26.30;99.90
12761;DHT22;6444;49.742;6.114;2023-05-07T12:13:21;26.20;99.90
12761;DHT22;6444;49.742;6.114;2023-05-07T12:15:46;25.10;99.90
12761;DHT22;6444;49.742;6.114;2023-05-07T12:18:13;24.40;99.90
12761;DHT22;6444;49.742;6.114;2023-05-07T12:20:40;25.20;99.90
12761;DHT22;6444;49.742;6.114;2023-05-07T12:23:08;25.70;99.90
12761;DHT22;6444;49.742;6.114;2023-05-07T12:25:41;25.70;99.90
12761;DHT22;6444;49.742;6.114;2023-05-07T12:28:07;25.90;99.90
12761;DHT22;6444;49.742;6.114;2023-05-07T12:30:39;26.40;99.90
12761;DHT22;6444;49.742;6.114;2023-05-07T12:33:06;26.70;99.90
12761;DHT22;6444;49.742;6.114;2023-05-07T12:35:36;26.40;99.90
12761;DHT22;6444;49.742;6.114;2023-05-07T12:37:59;27.20;99.90
12761;DHT22;6444;49.742;6.114;2023-05-07T12:40:45;27.40;99.90
12761;DHT22;6444;49.742;6.114;2023-05-07T12:43:20;25.80;99.90
12761;DHT22;6444;49.742;6.114;2023-05-07T12:45:47;25.60;99.90
12761;DHT22;6444;49.742;6.114;2023-05-07T12:48:13;25.10;99.90
12761;DHT22;6444;49.742;6.114;2023-05-07T12:50:40;25.10;99.90
12761;DHT22;6444;49.742;6.114;2023-05-07T12:53:07;25.20;99.90
12761;DHT22;6444;49.742;6.114;2023-05-07T12:55:43;25.20;99.90
12761;DHT22;6444;49.742;6.114;2023-05-07T12:58:00;24.90;99.90
12761;DHT22;6444;49.742;6.114;2023-05-07T13:00:36;25.00;99.90
12761;DHT22;6444;49.742;6.114;2023-05-07T13:03:02;25.30;99.90
12761;DHT22;6444;49.742;6.114;2023-05-07T13:05:29;25.90;99.90
12761;DHT22;6444;49.742;6.114;2023-05-07T13:07:56;26.70;99.90
12761;DHT22;6444;49.742;6.114;2023-05-07T13:10:22;26.90;99.90
12761;DHT22;6444;49.742;6.114;2023-05-07T13:12:49;27.20;99.90
12761;DHT22;6444;49.742;6.114;2023-05-07T13:15:15;27.10;99.90
12761;DHT22;6444;49.742;6.114;2023-05-07T13:17:42;26.70;99.90
12761;DHT22;6444;49.742;6.114;2023-05-07T13:20:12;26.60;99.90
12761;DHT22;6444;49.742;6.114;2023-05-07T13:22:41;26.40;99.90
12761;DHT22;6444;49.742;6.114;2023-05-07T13:25:07;26.20;99.90
12761;DHT22;6444;49.742;6.114;2023-05-07T13:27:34;26.10;99.90
12761;DHT22;6444;49.742;6.114;2023-05-07T13:30:03;26.10;99.90
12761;DHT22;6444;49.742;6.114;2023-05-07T13:32:30;26.20;99.90
12761;DHT22;6444;49.742;6.114;2023-05-07T13:34:57;26.40;99.90
12761;DHT22;6444;49.742;6.114;2023-05-07T13:37:23;26.20;99.90
12761;DHT22;6444;49.742;6.114;2023-05-07T13:39:51;25.80;99.90
12761;DHT22;6444;49.742;6.114;2023-05-07T13:42:17;25.80;99.90
12761;DHT22;6444;49.742;6.114;2023-05-07T13:44:44;25.80;99.90
12761;DHT22;6444;49.742;6.114;2023-05-07T13:47:11;26.20;99.90
12761;DHT22;6444;49.742;6.114;2023-05-07T13:49:37;26.60;99.90
12761;DHT22;6444;49.742;6.114;2023-05-07T13:52:04;27.00;99.90
12761;DHT22;6444;49.742;6.114;2023-05-07T13:54:31;27.20;99.90
12761;DHT22;6444;49.742;6.114;2023-05-07T13:56:57;27.40;99.90
12761;DHT22;6444;49.742;6.114;2023-05-07T13:59:24;26.70;99.90
12761;DHT22;6444;49.742;6.114;2023-05-07T14:01:50;26.50;99.90
12761;DHT22;6444;49.742;6.114;2023-05-07T14:04:17;26.70;99.90
12761;DHT22;6444;49.742;6.114;2023-05-07T14:06:44;25.90;99.90
12761;DHT22;6444;49.742;6.114;2023-05-07T14:09:11;25.90;99.90
12761;DHT22;6444;49.742;6.114;2023-05-07T14:11:38;25.30;99.90
12761;DHT22;6444;49.742;6.114;2023-05-07T14:14:04;24.90;99.90
12761;DHT22;6444;49.742;6.114;2023-05-07T14:16:31;25.60;99.90
12761;DHT22;6444;49.742;6.114;2023-05-07T14:18:58;26.50;99.90
12761;DHT22;6444;49.742;6.114;2023-05-07T14:21:24;27.00;99.90
12761;DHT22;6444;49.742;6.114;2023-05-07T14:23:51;27.10;99.90
12761;DHT22;6444;49.742;6.114;2023-05-07T14:26:18;27.30;99.90
12761;DHT22;6444;49.742;6.114;2023-05-07T14:28:45;27.50;99.90
12761;DHT22;6444;49.742;6.114;2023-05-07T14:31:12;27.40;99.90
12761;DHT22;6444;49.742;6.114;2023-05-07T14:33:38;27.00;99.90
12761;DHT22;6444;49.742;6.114;2023-05-07T14:36:05;27.10;99.90
12761;DHT22;6444;49.742;6.114;2023-05-07T14:38:31;27.10;99.90
12761;DHT22;6444;49.742;6.114;2023-05-07T14:40:59;27.50;99.90
12761;DHT22;6444;49.742;6.114;2023-05-07T14:43:25;27.40;99.90
12761;DHT22;6444;49.742;6.114;2023-05-07T14:45:52;26.70;99.90
12761;DHT22;6444;49.742;6.114;2023-05-07T14:48:19;26.20;99.90
12761;DHT22;6444;49.742;6.114;2023-05-07T14:50:48;26.60;99.90
12761;DHT22;6444;49.742;6.114;2023-05-07T14:53:13;26.90;99.90
12761;DHT22;6444;49.742;6.114;2023-05-07T14:55:39;26.90;99.90
12761;DHT22;6444;49.742;6.114;2023-05-07T14:58:06;27.10;99.90
12761;DHT22;6444;49.742;6.114;2023-05-07T15:00:33;27.30;99.90
12761;DHT22;6444;49.742;6.114;2023-05-07T15:03:06;27.30;99.90
12761;DHT22;6444;49.742;6.114;2023-05-07T15:05:31;27.30;99.90
12761;DHT22;6444;49.742;6.114;2023-05-07T15:07:58;27.10;99.90
12761;DHT22;6444;49.742;6.114;2023-05-07T15:10:26;26.90;99.90
12761;DHT22;6444;49.742;6.114;2023-05-07T15:12:52;26.90;99.90
12761;DHT22;6444;49.742;6.114;2023-05-07T15:15:19;26.80;99.90
12761;DHT22;6444;49.742;6.114;2023-05-07T15:17:45;26.90;99.90
12761;DHT22;6444;49.742;6.114;2023-05-07T15:20:13;26.60;99.90
12761;DHT22;6444;49.742;6.114;2023-05-07T15:22:39;26.50;99.90
12761;DHT22;6444;49.742;6.114;2023-05-07T15:25:06;26.70;99.90
12761;DHT22;6444;49.742;6.114;2023-05-07T15:27:33;26.80;99.90
12761;DHT22;6444;49.742;6.114;2023-05-07T15:29:59;27.00;99.90
12761;DHT22;6444;49.742;6.114;2023-05-07T15:32:27;25.50;99.90
12761;DHT22;6444;49.742;6.114;2023-05-07T15:34:53;25.50;99.90
12761;DHT22;6444;49.742;6.114;2023-05-07T15:37:20;24.90;99.90
12761;DHT22;6444;49.742;6.114;2023-05-07T15:39:46;24.90;99.90
12761;DHT22;6444;49.742;6.114;2023-05-07T15:42:13;24.10;99.90
12761;DHT22;6444;49.742;6.114;2023-05-07T15:44:40;24.20;99.90
12761;DHT22;6444;49.742;6.114;2023-05-07T15:47:07;24.00;99.90
12761;DHT22;6444;49.742;6.114;2023-05-07T15:49:34;24.00;99.90
12761;DHT22;6444;49.742;6.114;2023-05-07T15:52:00;23.60;99.90
12761;DHT22;6444;49.742;6.114;2023-05-07T15:54:27;23.90;99.90
12761;DHT22;6444;49.742;6.114;2023-05-07T15:56:54;24.70;99.90
12761;DHT22;6444;49.742;6.114;2023-05-07T15:59:21;24.60;99.90